Lebanon, Kansas
Current Conditions -  °F | °C
As of 12:55 PM on Saturday 25 Oct 2014 (Local Time) from KCNK Reporting Station
Clear Clear  
Wind Chill: 24°   Ceiling: Unl
Heat Index: 24°   Visibility: 10mi
Dew Point: 16°   Wind: 7mph
Humidity: 58%   Direction: 110°ESE
Pressure: 30.07"   Gusts: NA
Location:  39.81°N, 98.56°W
Report Text: KCNK 251755Z AUTO 11006KT 10SM CLR 24/16 A3007 RMK AO2 SLP171 T02440156 10244 20100 58008
Loading
Personal Weather Stations






























Interactive Weather Map
Tropical Storm Tracking
New forecast layout! Learn more

10-Day Weather Forecast

Advertisements
Track Severe Weather on mobile